sensor_id;sensor_type;location;lat;lon;timestamp;P1;durP1;ratioP1;P2;durP2;ratioP2
54935;SDS011;40838;50.676;7.838;2022-08-11T00:00:31;4.00;;;1.85;;
54935;SDS011;40838;50.676;7.838;2022-08-11T00:03:02;9.00;;;2.20;;
54935;SDS011;40838;50.676;7.838;2022-08-11T00:05:30;2.00;;;1.80;;
54935;SDS011;40838;50.676;7.838;2022-08-11T00:07:56;4.57;;;2.00;;
54935;SDS011;40838;50.676;7.838;2022-08-11T00:10:25;4.32;;;2.00;;
54935;SDS011;40838;50.676;7.838;2022-08-11T00:12:53;5.28;;;2.20;;
54935;SDS011;40838;50.676;7.838;2022-08-11T00:15:21;3.78;;;2.00;;
54935;SDS011;40838;50.676;7.838;2022-08-11T00:17:47;5.47;;;1.80;;
54935;SDS011;40838;50.676;7.838;2022-08-11T00:20:16;4.65;;;2.08;;
54935;SDS011;40838;50.676;7.838;2022-08-11T00:22:43;4.28;;;1.85;;
54935;SDS011;40838;50.676;7.838;2022-08-11T00:25:12;4.40;;;1.70;;
54935;SDS011;40838;50.676;7.838;2022-08-11T00:27:39;4.60;;;2.30;;
54935;SDS011;40838;50.676;7.838;2022-08-11T00:30:07;5.20;;;2.05;;
54935;SDS011;40838;50.676;7.838;2022-08-11T00:32:34;3.15;;;2.00;;
54935;SDS011;40838;50.676;7.838;2022-08-11T00:35:02;2.30;;;2.00;;
54935;SDS011;40838;50.676;7.838;2022-08-11T00:37:30;5.53;;;1.83;;
54935;SDS011;40838;50.676;7.838;2022-08-11T00:39:57;3.65;;;2.30;;
54935;SDS011;40838;50.676;7.838;2022-08-11T00:42:26;3.97;;;2.10;;
54935;SDS011;40838;50.676;7.838;2022-08-11T00:45:00;3.28;;;1.83;;
54935;SDS011;40838;50.676;7.838;2022-08-11T00:47:34;5.22;;;1.90;;
54935;SDS011;40838;50.676;7.838;2022-08-11T00:50:08;3.75;;;2.00;;
54935;SDS011;40838;50.676;7.838;2022-08-11T00:52:46;4.88;;;2.13;;
54935;SDS011;40838;50.676;7.838;2022-08-11T00:55:30;3.40;;;2.00;;
54935;SDS011;40838;50.676;7.838;2022-08-11T00:58:21;4.82;;;1.88;;
54935;SDS011;40838;50.676;7.838;2022-08-11T01:01:05;6.80;;;2.17;;
54935;SDS011;40838;50.676;7.838;2022-08-11T01:03:38;6.68;;;2.03;;
54935;SDS011;40838;50.676;7.838;2022-08-11T01:11:58;3.05;;;1.90;;
54935;SDS011;40838;50.676;7.838;2022-08-11T01:20:31;9.32;;;2.60;;
54935;SDS011;40838;50.676;7.838;2022-08-11T01:23:18;2.63;;;1.85;;
54935;SDS011;40838;50.676;7.838;2022-08-11T01:25:58;3.40;;;2.17;;
54935;SDS011;40838;50.676;7.838;2022-08-11T01:29:07;6.53;;;1.98;;
54935;SDS011;40838;50.676;7.838;2022-08-11T01:31:38;7.55;;;2.10;;
54935;SDS011;40838;50.676;7.838;2022-08-11T01:37:06;8.90;;;2.30;;
54935;SDS011;40838;50.676;7.838;2022-08-11T01:39:52;11.80;;;2.40;;
54935;SDS011;40838;50.676;7.838;2022-08-11T01:45:25;6.60;;;2.33;;
54935;SDS011;40838;50.676;7.838;2022-08-11T01:47:57;7.70;;;2.30;;
54935;SDS011;40838;50.676;7.838;2022-08-11T01:50:27;2.65;;;2.08;;
54935;SDS011;40838;50.676;7.838;2022-08-11T01:53:07;3.83;;;2.47;;
54935;SDS011;40838;50.676;7.838;2022-08-11T01:55:37;4.55;;;2.97;;
54935;SDS011;40838;50.676;7.838;2022-08-11T01:58:07;4.15;;;2.33;;
54935;SDS011;40838;50.676;7.838;2022-08-11T02:00:38;5.30;;;3.22;;
54935;SDS011;40838;50.676;7.838;2022-08-11T02:03:12;4.63;;;2.83;;
54935;SDS011;40838;50.676;7.838;2022-08-11T02:05:43;6.18;;;2.10;;
54935;SDS011;40838;50.676;7.838;2022-08-11T02:08:18;4.72;;;2.10;;
54935;SDS011;40838;50.676;7.838;2022-08-11T02:10:48;4.80;;;2.00;;
54935;SDS011;40838;50.676;7.838;2022-08-11T02:13:36;2.50;;;2.15;;
54935;SDS011;40838;50.676;7.838;2022-08-11T02:16:12;3.47;;;2.15;;
54935;SDS011;40838;50.676;7.838;2022-08-11T02:18:41;5.28;;;2.45;;
54935;SDS011;40838;50.676;7.838;2022-08-11T02:21:30;6.20;;;2.55;;
54935;SDS011;40838;50.676;7.838;2022-08-11T02:24:24;3.72;;;2.50;;
54935;SDS011;40838;50.676;7.838;2022-08-11T02:26:53;3.45;;;2.35;;
54935;SDS011;40838;50.676;7.838;2022-08-11T02:29:27;6.40;;;2.97;;
54935;SDS011;40838;50.676;7.838;2022-08-11T02:31:59;4.00;;;2.53;;
54935;SDS011;40838;50.676;7.838;2022-08-11T02:34:46;2.97;;;2.55;;
54935;SDS011;40838;50.676;7.838;2022-08-11T02:37:16;9.00;;;2.90;;
54935;SDS011;40838;50.676;7.838;2022-08-11T02:39:54;2.63;;;2.42;;
54935;SDS011;40838;50.676;7.838;2022-08-11T02:42:28;8.00;;;2.40;;
54935;SDS011;40838;50.676;7.838;2022-08-11T02:45:03;4.75;;;2.60;;
54935;SDS011;40838;50.676;7.838;2022-08-11T02:47:34;3.65;;;2.55;;
54935;SDS011;40838;50.676;7.838;2022-08-11T02:50:04;5.05;;;2.70;;
54935;SDS011;40838;50.676;7.838;2022-08-11T02:52:35;3.97;;;2.40;;
54935;SDS011;40838;50.676;7.838;2022-08-11T02:57:50;3.97;;;2.70;;
54935;SDS011;40838;50.676;7.838;2022-08-11T03:00:18;3.25;;;2.30;;
54935;SDS011;40838;50.676;7.838;2022-08-11T03:02:48;3.88;;;2.50;;
54935;SDS011;40838;50.676;7.838;2022-08-11T03:05:25;4.00;;;2.60;;
54935;SDS011;40838;50.676;7.838;2022-08-11T03:08:06;7.95;;;2.67;;
54935;SDS011;40838;50.676;7.838;2022-08-11T03:10:40;5.60;;;2.38;;
54935;SDS011;40838;50.676;7.838;2022-08-11T03:13:09;6.60;;;2.88;;
54935;SDS011;40838;50.676;7.838;2022-08-11T03:16:12;3.20;;;2.70;;
54935;SDS011;40838;50.676;7.838;2022-08-11T03:19:00;3.55;;;2.70;;
54935;SDS011;40838;50.676;7.838;2022-08-11T03:21:31;9.93;;;2.80;;
54935;SDS011;40838;50.676;7.838;2022-08-11T03:24:00;4.38;;;2.60;;
54935;SDS011;40838;50.676;7.838;2022-08-11T03:26:30;8.95;;;3.42;;
54935;SDS011;40838;50.676;7.838;2022-08-11T03:29:03;4.25;;;2.58;;
54935;SDS011;40838;50.676;7.838;2022-08-11T03:31:31;4.70;;;2.80;;
54935;SDS011;40838;50.676;7.838;2022-08-11T03:34:00;2.53;;;2.33;;
54935;SDS011;40838;50.676;7.838;2022-08-11T03:39:14;3.77;;;2.50;;
54935;SDS011;40838;50.676;7.838;2022-08-11T03:41:48;3.75;;;2.78;;
54935;SDS011;40838;50.676;7.838;2022-08-11T03:44:24;4.13;;;2.17;;
54935;SDS011;40838;50.676;7.838;2022-08-11T03:47:06;4.28;;;2.70;;
54935;SDS011;40838;50.676;7.838;2022-08-11T03:49:36;5.43;;;2.70;;
54935;SDS011;40838;50.676;7.838;2022-08-11T03:52:07;6.05;;;2.85;;
54935;SDS011;40838;50.676;7.838;2022-08-11T03:54:41;3.63;;;2.67;;
54935;SDS011;40838;50.676;7.838;2022-08-11T03:57:31;7.10;;;2.90;;
54935;SDS011;40838;50.676;7.838;2022-08-11T04:00:16;6.43;;;2.57;;
54935;SDS011;40838;50.676;7.838;2022-08-11T04:05:37;7.30;;;2.72;;
54935;SDS011;40838;50.676;7.838;2022-08-11T04:08:29;4.40;;;2.60;;
54935;SDS011;40838;50.676;7.838;2022-08-11T04:20:09;5.88;;;2.92;;
54935;SDS011;40838;50.676;7.838;2022-08-11T04:22:51;6.72;;;2.85;;
54935;SDS011;40838;50.676;7.838;2022-08-11T04:25:22;4.65;;;2.55;;
54935;SDS011;40838;50.676;7.838;2022-08-11T04:30:58;7.03;;;3.25;;
54935;SDS011;40838;50.676;7.838;2022-08-11T04:33:47;4.70;;;3.00;;
54935;SDS011;40838;50.676;7.838;2022-08-11T04:39:14;3.17;;;2.88;;
54935;SDS011;40838;50.676;7.838;2022-08-11T04:47:34;6.20;;;3.55;;
54935;SDS011;40838;50.676;7.838;2022-08-11T04:50:26;5.00;;;3.08;;
54935;SDS011;40838;50.676;7.838;2022-08-11T04:53:19;5.32;;;3.08;;
54935;SDS011;40838;50.676;7.838;2022-08-11T04:56:08;6.32;;;2.90;;
54935;SDS011;40838;50.676;7.838;2022-08-11T05:04:52;4.80;;;3.67;;
54935;SDS011;40838;50.676;7.838;2022-08-11T05:10:35;4.68;;;3.35;;
54935;SDS011;40838;50.676;7.838;2022-08-11T05:13:20;7.30;;;3.17;;
54935;SDS011;40838;50.676;7.838;2022-08-11T05:16:08;8.05;;;3.65;;
54935;SDS011;40838;50.676;7.838;2022-08-11T05:19:03;3.97;;;3.35;;
54935;SDS011;40838;50.676;7.838;2022-08-11T05:21:50;6.00;;;3.10;;
54935;SDS011;40838;50.676;7.838;2022-08-11T05:24:40;5.55;;;3.97;;
54935;SDS011;40838;50.676;7.838;2022-08-11T05:27:29;5.68;;;3.25;;
54935;SDS011;40838;50.676;7.838;2022-08-11T05:30:16;8.20;;;3.40;;
54935;SDS011;40838;50.676;7.838;2022-08-11T05:33:01;7.20;;;3.53;;
54935;SDS011;40838;50.676;7.838;2022-08-11T05:35:47;9.32;;;3.88;;
54935;SDS011;40838;50.676;7.838;2022-08-11T05:38:17;5.30;;;3.97;;
54935;SDS011;40838;50.676;7.838;2022-08-11T05:41:04;4.32;;;3.40;;
54935;SDS011;40838;50.676;7.838;2022-08-11T05:43:52;4.15;;;3.40;;
54935;SDS011;40838;50.676;7.838;2022-08-11T05:46:40;3.25;;;2.90;;
54935;SDS011;40838;50.676;7.838;2022-08-11T05:49:28;6.13;;;3.80;;
54935;SDS011;40838;50.676;7.838;2022-08-11T05:52:13;7.65;;;3.80;;
54935;SDS011;40838;50.676;7.838;2022-08-11T05:55:00;4.50;;;3.25;;
54935;SDS011;40838;50.676;7.838;2022-08-11T05:57:44;5.07;;;3.28;;
54935;SDS011;40838;50.676;7.838;2022-08-11T06:00:11;4.18;;;3.28;;
54935;SDS011;40838;50.676;7.838;2022-08-11T06:02:42;5.25;;;3.45;;
54935;SDS011;40838;50.676;7.838;2022-08-11T06:05:10;7.05;;;3.28;;
54935;SDS011;40838;50.676;7.838;2022-08-11T06:07:39;3.50;;;3.00;;
54935;SDS011;40838;50.676;7.838;2022-08-11T06:10:10;3.72;;;3.10;;
54935;SDS011;40838;50.676;7.838;2022-08-11T06:12:37;4.70;;;3.17;;
54935;SDS011;40838;50.676;7.838;2022-08-11T06:15:06;5.93;;;3.05;;
54935;SDS011;40838;50.676;7.838;2022-08-11T06:17:34;4.72;;;2.83;;
54935;SDS011;40838;50.676;7.838;2022-08-11T06:20:04;4.60;;;3.00;;
54935;SDS011;40838;50.676;7.838;2022-08-11T06:22:34;4.38;;;2.60;;
54935;SDS011;40838;50.676;7.838;2022-08-11T06:25:01;7.45;;;2.50;;
54935;SDS011;40838;50.676;7.838;2022-08-11T06:27:31;2.85;;;2.55;;
54935;SDS011;40838;50.676;7.838;2022-08-11T06:29:59;6.10;;;2.72;;
54935;SDS011;40838;50.676;7.838;2022-08-11T06:32:28;3.05;;;2.40;;
54935;SDS011;40838;50.676;7.838;2022-08-11T06:35:00;3.10;;;2.40;;
54935;SDS011;40838;50.676;7.838;2022-08-11T06:37:34;2.95;;;2.50;;
54935;SDS011;40838;50.676;7.838;2022-08-11T06:40:06;3.97;;;2.17;;
54935;SDS011;40838;50.676;7.838;2022-08-11T06:42:42;3.53;;;2.50;;
54935;SDS011;40838;50.676;7.838;2022-08-11T06:45:15;2.97;;;2.50;;
54935;SDS011;40838;50.676;7.838;2022-08-11T06:47:44;4.10;;;2.40;;
54935;SDS011;40838;50.676;7.838;2022-08-11T06:50:16;3.10;;;2.10;;
54935;SDS011;40838;50.676;7.838;2022-08-11T06:53:04;3.17;;;2.30;;
54935;SDS011;40838;50.676;7.838;2022-08-11T06:55:33;7.55;;;2.75;;
54935;SDS011;40838;50.676;7.838;2022-08-11T06:58:20;2.60;;;2.40;;
54935;SDS011;40838;50.676;7.838;2022-08-11T07:01:07;3.35;;;2.28;;
54935;SDS011;40838;50.676;7.838;2022-08-11T07:03:36;5.78;;;2.42;;
54935;SDS011;40838;50.676;7.838;2022-08-11T07:06:09;4.15;;;1.95;;
54935;SDS011;40838;50.676;7.838;2022-08-11T07:14:34;8.13;;;2.17;;
54935;SDS011;40838;50.676;7.838;2022-08-11T07:17:21;7.97;;;1.92;;
54935;SDS011;40838;50.676;7.838;2022-08-11T07:19:50;2.40;;;2.00;;
54935;SDS011;40838;50.676;7.838;2022-08-11T07:22:36;2.33;;;1.80;;
54935;SDS011;40838;50.676;7.838;2022-08-11T07:28:16;4.40;;;2.17;;
54935;SDS011;40838;50.676;7.838;2022-08-11T07:31:02;2.38;;;1.85;;
54935;SDS011;40838;50.676;7.838;2022-08-11T07:33:31;3.80;;;2.10;;
54935;SDS011;40838;50.676;7.838;2022-08-11T07:36:04;2.53;;;1.90;;
54935;SDS011;40838;50.676;7.838;2022-08-11T07:38:33;5.72;;;1.70;;
54935;SDS011;40838;50.676;7.838;2022-08-11T07:41:08;2.05;;;1.55;;
54935;SDS011;40838;50.676;7.838;2022-08-11T07:43:37;2.10;;;1.77;;
54935;SDS011;40838;50.676;7.838;2022-08-11T07:46:06;4.13;;;2.00;;
54935;SDS011;40838;50.676;7.838;2022-08-11T07:48:50;1.85;;;1.58;;
54935;SDS011;40838;50.676;7.838;2022-08-11T07:51:34;4.57;;;1.85;;
54935;SDS011;40838;50.676;7.838;2022-08-11T07:54:19;3.20;;;1.77;;
54935;SDS011;40838;50.676;7.838;2022-08-11T07:56:46;2.38;;;1.80;;
54935;SDS011;40838;50.676;7.838;2022-08-11T07:59:13;2.28;;;1.80;;
54935;SDS011;40838;50.676;7.838;2022-08-11T08:01:58;2.13;;;1.60;;
54935;SDS011;40838;50.676;7.838;2022-08-11T08:04:43;4.38;;;1.70;;
54935;SDS011;40838;50.676;7.838;2022-08-11T08:07:29;3.33;;;1.50;;
54935;SDS011;40838;50.676;7.838;2022-08-11T08:10:14;2.40;;;1.90;;
54935;SDS011;40838;50.676;7.838;2022-08-11T08:13:00;3.33;;;1.92;;
54935;SDS011;40838;50.676;7.838;2022-08-11T08:15:44;5.47;;;1.75;;
54935;SDS011;40838;50.676;7.838;2022-08-11T08:18:30;4.43;;;2.30;;
54935;SDS011;40838;50.676;7.838;2022-08-11T08:20:59;2.47;;;1.52;;
54935;SDS011;40838;50.676;7.838;2022-08-11T08:23:37;3.88;;;1.77;;
54935;SDS011;40838;50.676;7.838;2022-08-11T08:26:05;2.30;;;1.80;;
54935;SDS011;40838;50.676;7.838;2022-08-11T08:28:52;4.20;;;1.50;;
54935;SDS011;40838;50.676;7.838;2022-08-11T08:31:42;6.05;;;1.80;;
54935;SDS011;40838;50.676;7.838;2022-08-11T08:34:11;2.70;;;1.45;;
54935;SDS011;40838;50.676;7.838;2022-08-11T08:36:39;2.28;;;1.40;;
54935;SDS011;40838;50.676;7.838;2022-08-11T08:39:08;3.42;;;1.80;;
54935;SDS011;40838;50.676;7.838;2022-08-11T08:41:35;2.88;;;1.60;;
54935;SDS011;40838;50.676;7.838;2022-08-11T08:44:03;5.65;;;1.83;;
54935;SDS011;40838;50.676;7.838;2022-08-11T08:46:32;2.67;;;1.98;;
54935;SDS011;40838;50.676;7.838;2022-08-11T08:49:00;7.80;;;1.65;;
54935;SDS011;40838;50.676;7.838;2022-08-11T08:51:29;6.97;;;2.30;;
54935;SDS011;40838;50.676;7.838;2022-08-11T08:54:02;2.47;;;1.80;;
54935;SDS011;40838;50.676;7.838;2022-08-11T08:56:29;2.53;;;2.00;;
54935;SDS011;40838;50.676;7.838;2022-08-11T08:59:00;3.70;;;2.00;;
54935;SDS011;40838;50.676;7.838;2022-08-11T09:01:35;4.65;;;2.10;;
54935;SDS011;40838;50.676;7.838;2022-08-11T09:04:06;7.38;;;1.73;;
54935;SDS011;40838;50.676;7.838;2022-08-11T09:06:39;4.10;;;1.90;;
54935;SDS011;40838;50.676;7.838;2022-08-11T09:09:07;5.85;;;1.77;;
54935;SDS011;40838;50.676;7.838;2022-08-11T09:11:39;3.10;;;1.77;;
54935;SDS011;40838;50.676;7.838;2022-08-11T09:14:17;4.68;;;1.67;;
54935;SDS011;40838;50.676;7.838;2022-08-11T09:16:45;2.47;;;1.90;;
54935;SDS011;40838;50.676;7.838;2022-08-11T09:19:13;2.35;;;1.92;;
54935;SDS011;40838;50.676;7.838;2022-08-11T09:21:44;4.25;;;1.88;;
54935;SDS011;40838;50.676;7.838;2022-08-11T09:24:31;6.15;;;1.95;;
54935;SDS011;40838;50.676;7.838;2022-08-11T09:27:16;4.55;;;1.77;;
54935;SDS011;40838;50.676;7.838;2022-08-11T09:29:45;4.57;;;1.92;;
54935;SDS011;40838;50.676;7.838;2022-08-11T09:32:12;2.55;;;1.92;;
54935;SDS011;40838;50.676;7.838;2022-08-11T09:34:39;6.38;;;2.35;;
54935;SDS011;40838;50.676;7.838;2022-08-11T09:37:08;4.30;;;1.95;;
54935;SDS011;40838;50.676;7.838;2022-08-11T09:39:52;4.50;;;2.03;;
54935;SDS011;40838;50.676;7.838;2022-08-11T09:42:39;3.53;;;1.90;;
54935;SDS011;40838;50.676;7.838;2022-08-11T09:45:24;2.20;;;1.73;;
54935;SDS011;40838;50.676;7.838;2022-08-11T09:47:51;2.22;;;1.77;;
54935;SDS011;40838;50.676;7.838;2022-08-11T09:50:17;4.10;;;1.98;;
54935;SDS011;40838;50.676;7.838;2022-08-11T09:52:45;6.13;;;2.95;;
54935;SDS011;40838;50.676;7.838;2022-08-11T09:55:13;4.65;;;1.70;;
54935;SDS011;40838;50.676;7.838;2022-08-11T09:57:43;2.00;;;1.70;;
54935;SDS011;40838;50.676;7.838;2022-08-11T10:00:28;4.63;;;2.00;;
54935;SDS011;40838;50.676;7.838;2022-08-11T10:02:55;3.67;;;1.67;;
54935;SDS011;40838;50.676;7.838;2022-08-11T10:05:24;6.28;;;1.80;;
54935;SDS011;40838;50.676;7.838;2022-08-11T10:08:10;8.77;;;1.90;;
54935;SDS011;40838;50.676;7.838;2022-08-11T10:10:41;7.30;;;1.98;;
54935;SDS011;40838;50.676;7.838;2022-08-11T10:13:12;1.98;;;1.77;;
54935;SDS011;40838;50.676;7.838;2022-08-11T10:15:40;5.13;;;2.00;;
54935;SDS011;40838;50.676;7.838;2022-08-11T10:18:10;2.55;;;2.20;;
54935;SDS011;40838;50.676;7.838;2022-08-11T10:20:58;2.70;;;1.60;;
54935;SDS011;40838;50.676;7.838;2022-08-11T10:23:27;7.60;;;1.95;;
54935;SDS011;40838;50.676;7.838;2022-08-11T10:26:11;7.90;;;2.10;;
54935;SDS011;40838;50.676;7.838;2022-08-11T10:28:56;6.32;;;2.00;;
54935;SDS011;40838;50.676;7.838;2022-08-11T10:31:25;9.95;;;2.60;;
54935;SDS011;40838;50.676;7.838;2022-08-11T10:34:09;4.57;;;1.85;;
54935;SDS011;40838;50.676;7.838;2022-08-11T10:36:38;5.07;;;2.05;;
54935;SDS011;40838;50.676;7.838;2022-08-11T10:39:12;3.67;;;1.90;;
54935;SDS011;40838;50.676;7.838;2022-08-11T10:41:42;2.85;;;2.05;;
54935;SDS011;40838;50.676;7.838;2022-08-11T10:44:27;2.63;;;1.80;;
54935;SDS011;40838;50.676;7.838;2022-08-11T10:47:01;1.92;;;1.75;;
54935;SDS011;40838;50.676;7.838;2022-08-11T10:49:46;6.38;;;1.80;;
54935;SDS011;40838;50.676;7.838;2022-08-11T10:52:35;7.38;;;1.98;;
54935;SDS011;40838;50.676;7.838;2022-08-11T10:55:21;7.07;;;2.00;;
54935;SDS011;40838;50.676;7.838;2022-08-11T10:58:06;3.88;;;1.95;;
54935;SDS011;40838;50.676;7.838;2022-08-11T11:00:50;2.58;;;1.50;;
54935;SDS011;40838;50.676;7.838;2022-08-11T11:03:21;5.43;;;2.00;;
54935;SDS011;40838;50.676;7.838;2022-08-11T11:05:50;5.35;;;1.88;;
54935;SDS011;40838;50.676;7.838;2022-08-11T11:08:19;4.07;;;1.67;;
54935;SDS011;40838;50.676;7.838;2022-08-11T11:11:06;2.28;;;1.73;;
54935;SDS011;40838;50.676;7.838;2022-08-11T11:13:33;4.43;;;1.90;;
54935;SDS011;40838;50.676;7.838;2022-08-11T11:16:19;9.60;;;1.92;;
54935;SDS011;40838;50.676;7.838;2022-08-11T11:19:18;3.00;;;2.10;;
54935;SDS011;40838;50.676;7.838;2022-08-11T11:21:50;3.55;;;1.67;;
54935;SDS011;40838;50.676;7.838;2022-08-11T11:24:21;2.97;;;2.10;;
54935;SDS011;40838;50.676;7.838;2022-08-11T11:26:55;3.50;;;2.20;;
54935;SDS011;40838;50.676;7.838;2022-08-11T11:29:28;3.33;;;1.52;;
54935;SDS011;40838;50.676;7.838;2022-08-11T11:32:16;4.85;;;1.85;;
54935;SDS011;40838;50.676;7.838;2022-08-11T11:35:03;4.78;;;1.83;;
54935;SDS011;40838;50.676;7.838;2022-08-11T11:37:36;4.18;;;2.00;;
54935;SDS011;40838;50.676;7.838;2022-08-11T11:40:07;5.15;;;1.88;;
54935;SDS011;40838;50.676;7.838;2022-08-11T11:42:37;4.30;;;1.90;;
54935;SDS011;40838;50.676;7.838;2022-08-11T11:45:05;5.85;;;2.03;;
54935;SDS011;40838;50.676;7.838;2022-08-11T11:47:32;3.33;;;1.65;;
54935;SDS011;40838;50.676;7.838;2022-08-11T11:50:00;2.78;;;1.80;;
54935;SDS011;40838;50.676;7.838;2022-08-11T11:52:27;2.55;;;1.60;;
54935;SDS011;40838;50.676;7.838;2022-08-11T11:54:54;5.35;;;2.15;;
54935;SDS011;40838;50.676;7.838;2022-08-11T11:57:24;2.58;;;1.90;;
54935;SDS011;40838;50.676;7.838;2022-08-11T12:00:11;3.95;;;1.83;;
54935;SDS011;40838;50.676;7.838;2022-08-11T12:02:57;3.42;;;1.70;;
54935;SDS011;40838;50.676;7.838;2022-08-11T12:05:24;4.03;;;2.05;;
54935;SDS011;40838;50.676;7.838;2022-08-11T12:07:57;5.38;;;2.15;;
54935;SDS011;40838;50.676;7.838;2022-08-11T12:10:38;1.83;;;1.63;;
54935;SDS011;40838;50.676;7.838;2022-08-11T12:13:05;2.95;;;2.00;;
54935;SDS011;40838;50.676;7.838;2022-08-11T12:15:53;4.90;;;1.83;;
54935;SDS011;40838;50.676;7.838;2022-08-11T12:18:20;4.75;;;2.13;;
54935;SDS011;40838;50.676;7.838;2022-08-11T12:20:47;3.10;;;1.80;;
54935;SDS011;40838;50.676;7.838;2022-08-11T12:23:14;4.00;;;1.98;;
54935;SDS011;40838;50.676;7.838;2022-08-11T12:25:58;2.03;;;1.67;;
54935;SDS011;40838;50.676;7.838;2022-08-11T12:28:43;8.43;;;1.90;;
54935;SDS011;40838;50.676;7.838;2022-08-11T12:31:11;4.13;;;1.73;;
54935;SDS011;40838;50.676;7.838;2022-08-11T12:33:39;4.13;;;1.67;;
54935;SDS011;40838;50.676;7.838;2022-08-11T12:36:08;4.03;;;1.77;;
54935;SDS011;40838;50.676;7.838;2022-08-11T12:38:43;4.85;;;1.90;;
54935;SDS011;40838;50.676;7.838;2022-08-11T12:41:12;6.28;;;1.70;;
54935;SDS011;40838;50.676;7.838;2022-08-11T12:43:57;2.20;;;1.77;;
54935;SDS011;40838;50.676;7.838;2022-08-11T12:46:45;7.40;;;2.45;;
54935;SDS011;40838;50.676;7.838;2022-08-11T12:49:14;2.28;;;1.88;;
54935;SDS011;40838;50.676;7.838;2022-08-11T12:52:02;2.20;;;1.80;;
54935;SDS011;40838;50.676;7.838;2022-08-11T12:54:30;3.33;;;1.80;;
54935;SDS011;40838;50.676;7.838;2022-08-11T12:56:59;6.93;;;1.95;;
54935;SDS011;40838;50.676;7.838;2022-08-11T12:59:44;3.38;;;1.92;;
54935;SDS011;40838;50.676;7.838;2022-08-11T13:02:30;5.30;;;1.80;;
54935;SDS011;40838;50.676;7.838;2022-08-11T13:05:14;6.07;;;1.98;;
54935;SDS011;40838;50.676;7.838;2022-08-11T13:07:42;3.35;;;2.00;;
54935;SDS011;40838;50.676;7.838;2022-08-11T13:10:12;5.65;;;1.95;;
54935;SDS011;40838;50.676;7.838;2022-08-11T13:12:39;5.50;;;1.83;;
54935;SDS011;40838;50.676;7.838;2022-08-11T13:15:16;4.13;;;1.80;;
54935;SDS011;40838;50.676;7.838;2022-08-11T13:17:49;5.85;;;1.98;;
54935;SDS011;40838;50.676;7.838;2022-08-11T13:20:17;5.70;;;1.85;;
54935;SDS011;40838;50.676;7.838;2022-08-11T13:22:45;6.22;;;2.33;;
54935;SDS011;40838;50.676;7.838;2022-08-11T13:25:14;2.92;;;1.92;;
54935;SDS011;40838;50.676;7.838;2022-08-11T13:27:54;4.05;;;1.88;;
54935;SDS011;40838;50.676;7.838;2022-08-11T13:30:22;2.40;;;1.80;;
54935;SDS011;40838;50.676;7.838;2022-08-11T13:33:09;2.30;;;1.70;;
54935;SDS011;40838;50.676;7.838;2022-08-11T13:35:36;6.38;;;1.85;;
54935;SDS011;40838;50.676;7.838;2022-08-11T13:38:05;3.47;;;2.03;;
54935;SDS011;40838;50.676;7.838;2022-08-11T13:40:37;7.25;;;2.10;;
54935;SDS011;40838;50.676;7.838;2022-08-11T13:43:04;2.55;;;1.77;;
54935;SDS011;40838;50.676;7.838;2022-08-11T13:45:31;5.50;;;2.08;;
54935;SDS011;40838;50.676;7.838;2022-08-11T13:47:59;5.22;;;1.90;;
54935;SDS011;40838;50.676;7.838;2022-08-11T13:50:27;5.07;;;2.00;;
54935;SDS011;40838;50.676;7.838;2022-08-11T13:53:07;6.60;;;2.10;;
54935;SDS011;40838;50.676;7.838;2022-08-11T13:55:36;4.82;;;2.13;;
54935;SDS011;40838;50.676;7.838;2022-08-11T13:58:04;2.08;;;1.88;;
54935;SDS011;40838;50.676;7.838;2022-08-11T14:00:31;8.20;;;2.10;;
54935;SDS011;40838;50.676;7.838;2022-08-11T14:02:59;5.30;;;1.98;;
54935;SDS011;40838;50.676;7.838;2022-08-11T14:05:28;3.35;;;1.73;;
54935;SDS011;40838;50.676;7.838;2022-08-11T14:07:58;2.03;;;1.85;;
54935;SDS011;40838;50.676;7.838;2022-08-11T14:10:26;3.35;;;2.20;;
54935;SDS011;40838;50.676;7.838;2022-08-11T14:12:56;1.83;;;1.70;;
54935;SDS011;40838;50.676;7.838;2022-08-11T14:15:50;4.38;;;1.60;;
54935;SDS011;40838;50.676;7.838;2022-08-11T14:18:18;1.95;;;1.73;;
54935;SDS011;40838;50.676;7.838;2022-08-11T14:20:48;2.88;;;1.70;;
54935;SDS011;40838;50.676;7.838;2022-08-11T14:23:34;2.28;;;1.58;;
54935;SDS011;40838;50.676;7.838;2022-08-11T14:26:02;5.03;;;1.90;;
54935;SDS011;40838;50.676;7.838;2022-08-11T14:28:51;5.03;;;1.88;;
54935;SDS011;40838;50.676;7.838;2022-08-11T14:31:19;4.35;;;2.13;;
54935;SDS011;40838;50.676;7.838;2022-08-11T14:33:46;4.22;;;1.70;;
54935;SDS011;40838;50.676;7.838;2022-08-11T14:36:15;2.33;;;1.83;;
54935;SDS011;40838;50.676;7.838;2022-08-11T14:38:42;6.68;;;1.77;;
54935;SDS011;40838;50.676;7.838;2022-08-11T14:41:09;2.13;;;1.80;;
54935;SDS011;40838;50.676;7.838;2022-08-11T14:43:54;5.80;;;2.05;;
54935;SDS011;40838;50.676;7.838;2022-08-11T14:46:39;5.10;;;1.75;;
54935;SDS011;40838;50.676;7.838;2022-08-11T14:49:24;7.93;;;2.00;;
54935;SDS011;40838;50.676;7.838;2022-08-11T14:51:52;5.93;;;1.95;;
54935;SDS011;40838;50.676;7.838;2022-08-11T14:54:21;2.70;;;1.95;;
54935;SDS011;40838;50.676;7.838;2022-08-11T14:57:05;5.03;;;1.83;;
54935;SDS011;40838;50.676;7.838;2022-08-11T14:59:31;5.22;;;1.80;;
54935;SDS011;40838;50.676;7.838;2022-08-11T15:01:59;7.20;;;1.80;;
54935;SDS011;40838;50.676;7.838;2022-08-11T15:04:44;3.10;;;1.63;;
54935;SDS011;40838;50.676;7.838;2022-08-11T15:07:12;2.70;;;1.70;;
54935;SDS011;40838;50.676;7.838;2022-08-11T15:09:39;4.50;;;1.80;;
54935;SDS011;40838;50.676;7.838;2022-08-11T15:12:08;3.17;;;1.63;;
54935;SDS011;40838;50.676;7.838;2022-08-11T15:14:41;5.57;;;1.83;;
54935;SDS011;40838;50.676;7.838;2022-08-11T15:17:25;3.53;;;1.98;;
54935;SDS011;40838;50.676;7.838;2022-08-11T15:19:52;6.18;;;1.80;;
54935;SDS011;40838;50.676;7.838;2022-08-11T15:22:41;6.57;;;1.85;;
54935;SDS011;40838;50.676;7.838;2022-08-11T15:25:25;4.60;;;1.80;;
54935;SDS011;40838;50.676;7.838;2022-08-11T15:27:54;2.97;;;2.00;;
54935;SDS011;40838;50.676;7.838;2022-08-11T15:30:39;5.50;;;2.30;;
54935;SDS011;40838;50.676;7.838;2022-08-11T15:33:23;7.97;;;2.20;;
54935;SDS011;40838;50.676;7.838;2022-08-11T15:36:10;2.28;;;1.90;;
54935;SDS011;40838;50.676;7.838;2022-08-11T15:39:02;4.90;;;1.92;;
54935;SDS011;40838;50.676;7.838;2022-08-11T15:41:32;5.40;;;1.70;;
54935;SDS011;40838;50.676;7.838;2022-08-11T15:44:18;4.20;;;1.88;;
54935;SDS011;40838;50.676;7.838;2022-08-11T15:47:03;5.68;;;2.00;;
54935;SDS011;40838;50.676;7.838;2022-08-11T15:49:33;4.35;;;1.90;;
54935;SDS011;40838;50.676;7.838;2022-08-11T15:52:04;2.22;;;1.90;;
54935;SDS011;40838;50.676;7.838;2022-08-11T15:54:34;5.93;;;2.03;;
54935;SDS011;40838;50.676;7.838;2022-08-11T15:57:04;3.80;;;2.00;;
54935;SDS011;40838;50.676;7.838;2022-08-11T15:59:31;4.30;;;2.03;;
54935;SDS011;40838;50.676;7.838;2022-08-11T16:02:18;2.10;;;1.90;;
54935;SDS011;40838;50.676;7.838;2022-08-11T16:05:17;2.25;;;1.90;;
54935;SDS011;40838;50.676;7.838;2022-08-11T16:07:44;6.68;;;2.05;;
54935;SDS011;40838;50.676;7.838;2022-08-11T16:10:15;4.63;;;1.85;;
54935;SDS011;40838;50.676;7.838;2022-08-11T16:12:46;3.72;;;1.65;;
54935;SDS011;40838;50.676;7.838;2022-08-11T16:15:46;4.57;;;1.80;;
54935;SDS011;40838;50.676;7.838;2022-08-11T16:18:32;2.38;;;1.98;;
54935;SDS011;40838;50.676;7.838;2022-08-11T16:21:06;3.92;;;1.98;;
54935;SDS011;40838;50.676;7.838;2022-08-11T16:23:34;5.20;;;1.90;;
54935;SDS011;40838;50.676;7.838;2022-08-11T16:26:02;3.85;;;1.80;;
54935;SDS011;40838;50.676;7.838;2022-08-11T16:28:30;6.25;;;2.10;;
54935;SDS011;40838;50.676;7.838;2022-08-11T16:30:59;4.00;;;2.03;;
54935;SDS011;40838;50.676;7.838;2022-08-11T16:33:26;2.95;;;1.77;;
54935;SDS011;40838;50.676;7.838;2022-08-11T16:35:55;2.42;;;1.90;;
54935;SDS011;40838;50.676;7.838;2022-08-11T16:38:39;2.72;;;2.17;;
54935;SDS011;40838;50.676;7.838;2022-08-11T16:41:09;5.18;;;1.92;;